Templeton, Pennsylvania
Current Conditions -  °F | °C
As of 7:55 AM on Monday 22 Dec 2014 (Local Time) from KBTP Reporting Station
Clear Clear  
Wind Chill: 17°   Ceiling: Unl
Heat Index: 25°   Visibility: 8mi
Dew Point: 21°   Wind: 7mph
Humidity: 86%   Direction: 80°E
Pressure: 30.14"   Gusts: NA
Location:  40.92°N, 79.46°W
Report Text: KBTP 221255Z AUTO 08006KT 8SM CLR M04/M06 A3014 RMK AO1
Loading
Personal Weather Stations






























Interactive Weather Map New forecast layout! Learn more

10-Day Weather Forecast

Advertisements
Track Severe Weather on mobile